Pindall, Arkansas
Current Conditions -  °F | °C
As of 9:53 PM on Saturday 24 Jan 2015 (Local Time) from KHRO Reporting Station
Clear Clear  
Wind Chill: 10°   Ceiling: Unl
Heat Index: 10°   Visibility: 10mi
Dew Point:   Wind: 14mph
Humidity: 52%   Direction: 250°WSW
Pressure: 29.85"   Gusts: 24mph
Location:  36.07°N, 92.88°W
Report Text: KHRO 250353Z AUTO 25012G21KT 10SM CLR 10/01 A2985 RMK AO2 SLP110 T01000006
Loading
Personal Weather Stations






























Interactive Weather Map New forecast layout! Learn more

10-Day Weather Forecast

Advertisements
Track Severe Weather on mobile